Time;durP1;ratioP1;P1;durP2;ratioP2;P2;SDS_P1;SDS_P2;PMS_P1;PMS_P2;Temp;Humidity;BMP_temperature;BMP_pressure;BME280_temperature;BME280_humidity;BME280_pressure;Samples;Min_cycle;Max_cycle;Signal;HPM_P1;HPM_P2
2022/10/22 00:01:10;;;;;;;12.48;3.65;;;16.70;99.90;;;;;;5071400;28;25142;-70
2022/10/22 00:03:36;;;;;;;7.35;2.70;;;16.70;99.90;;;;;;5064641;28;25051;-70
2022/10/22 00:06:01;;;;;;;13.60;3.10;;;16.80;99.90;;;;;;5066182;28;25143;-70
2022/10/22 00:08:27;;;;;;;9.45;4.72;;;16.80;99.90;;;;;;5064204;28;25054;-69
2022/10/22 00:10:53;;;;;;;11.02;3.53;;;16.80;99.90;;;;;;5073062;28;25099;-70
2022/10/22 00:13:19;;;;;;;8.73;3.47;;;16.80;99.90;;;;;;5068891;28;25114;-70
2022/10/22 00:15:44;;;;;;;12.05;2.78;;;16.80;99.90;;;;;;5074558;28;25057;-71
2022/10/22 00:18:10;;;;;;;7.95;3.00;;;16.70;99.90;;;;;;5064480;28;25111;-70
2022/10/22 00:20:36;;;;;;;7.35;3.47;;;16.70;99.90;;;;;;5071605;28;25086;-70
2022/10/22 00:23:01;;;;;;;9.52;3.22;;;16.70;99.90;;;;;;5074452;28;25094;-71
2022/10/22 00:25:27;;;;;;;11.18;2.92;;;16.70;99.90;;;;;;5069771;28;25171;-70
2022/10/22 00:27:53;;;;;;;9.40;3.70;;;16.70;99.90;;;;;;5076770;28;25139;-70
2022/10/22 00:30:18;;;;;;;11.95;4.68;;;16.70;99.90;;;;;;5074686;28;25073;-70
2022/10/22 00:32:44;;;;;;;14.82;3.88;;;16.70;99.90;;;;;;5073040;28;25074;-70
2022/10/22 00:35:10;;;;;;;8.13;2.72;;;16.70;99.90;;;;;;5071718;28;25127;-69
2022/10/22 00:37:35;;;;;;;6.40;2.75;;;16.70;99.90;;;;;;5070851;28;25172;-70
2022/10/22 00:40:01;;;;;;;7.13;2.63;;;16.70;99.90;;;;;;5059585;28;25070;-70
2022/10/22 00:42:30;;;;;;;12.25;3.00;;;16.60;99.90;;;;;;5076866;28;25076;-70
2022/10/22 00:45:02;;;;;;;6.68;2.83;;;16.60;99.90;;;;;;5061687;28;25058;-69
2022/10/22 00:47:31;;;;;;;9.25;2.70;;;16.70;99.90;;;;;;5077353;28;25097;-70
2022/10/22 00:49:59;;;;;;;8.13;3.55;;;16.70;99.90;;;;;;5074245;28;25054;-73
2022/10/22 00:52:26;;;;;;;10.65;2.55;;;16.60;99.90;;;;;;5078455;28;25050;-72
2022/10/22 00:54:52;;;;;;;11.77;3.20;;;16.50;99.90;;;;;;5076538;28;25119;-74
2022/10/22 00:57:19;;;;;;;9.63;3.00;;;16.60;99.90;;;;;;5078742;28;25168;-71
2022/10/22 00:59:46;;;;;;;8.70;3.20;;;16.60;99.90;;;;;;5069767;28;25122;-76
2022/10/22 01:02:12;;;;;;;6.97;2.80;;;16.60;99.90;;;;;;5057067;28;25073;-74
2022/10/22 01:04:37;;;;;;;10.10;3.15;;;16.60;99.90;;;;;;5061005;28;25077;-74
2022/10/22 01:07:03;;;;;;;8.15;3.28;;;16.60;99.90;;;;;;5074835;28;25131;-77
2022/10/22 01:09:41;;;;;;;8.43;3.13;;;16.70;99.90;;;;;;5059488;28;25067;-75
2022/10/22 01:12:15;;;;;;;10.07;2.90;;;16.70;99.90;;;;;;5065872;28;25070;-73
2022/10/22 01:15:07;;;;;;;7.90;2.72;;;16.70;99.90;;;;;;5077297;28;25139;-73
2022/10/22 01:17:38;;;;;;;12.75;3.38;;;16.70;99.90;;;;;;5019811;28;25113;-74
2022/10/22 01:20:34;;;;;;;12.18;3.28;;;16.60;99.90;;;;;;5072773;28;25064;-78
2022/10/22 01:23:36;;;;;;;5.30;3.17;;;16.70;99.90;;;;;;5075293;28;25083;-74
2022/10/22 01:26:50;;;;;;;6.20;2.90;;;16.70;99.90;;;;;;5066565;28;25154;-76
2022/10/22 01:29:26;;;;;;;10.65;2.92;;;16.60;99.90;;;;;;5004357;28;25057;-76
2022/10/22 01:32:01;;;;;;;6.40;3.30;;;16.60;99.90;;;;;;5064726;28;25071;-74
2022/10/22 01:34:29;;;;;;;9.68;2.60;;;16.50;99.90;;;;;;5077425;28;25066;-76
2022/10/22 01:36:56;;;;;;;9.18;2.50;;;16.60;99.90;;;;;;5052615;28;25087;-78
2022/10/22 01:39:24;;;;;;;8.35;3.17;;;16.60;99.90;;;;;;5078184;28;25106;-78
2022/10/22 01:41:49;;;;;;;6.05;2.70;;;16.50;99.90;;;;;;5064609;28;25059;-76
2022/10/22 01:44:27;;;;;;;9.70;3.05;;;16.60;99.90;;;;;;5076358;28;25118;-73
2022/10/22 01:47:10;;;;;;;11.05;2.85;;;16.60;99.90;;;;;;5053223;28;25069;-75
2022/10/22 01:49:41;;;;;;;6.70;2.92;;;16.70;99.90;;;;;;5077003;28;25077;-74
2022/10/22 01:52:34;;;;;;;5.60;2.50;;;16.70;99.90;;;;;;5082412;28;25061;-73
2022/10/22 01:55:15;;;;;;;7.32;2.42;;;16.60;99.90;;;;;;5059165;28;25062;-75
2022/10/22 01:57:53;;;;;;;7.57;2.33;;;16.60;99.90;;;;;;5071436;28;25136;-73
2022/10/22 02:00:19;;;;;;;9.45;2.75;;;16.70;99.90;;;;;;5056584;28;25153;-73
2022/10/22 02:02:48;;;;;;;7.25;2.55;;;16.60;99.90;;;;;;5080127;28;25122;-74
2022/10/22 02:05:44;;;;;;;9.45;2.47;;;16.50;99.90;;;;;;5076111;28;25083;-72
2022/10/22 02:08:16;;;;;;;10.90;2.95;;;16.50;99.90;;;;;;5078849;28;25059;-74
2022/10/22 02:10:45;;;;;;;6.68;2.72;;;16.60;99.90;;;;;;5076700;28;25141;-72
2022/10/22 02:13:47;;;;;;;11.48;2.72;;;16.60;99.90;;;;;;5076171;28;25085;-77
2022/10/22 02:16:26;;;;;;;6.18;2.35;;;16.60;99.90;;;;;;5073523;28;25071;-75
2022/10/22 02:18:55;;;;;;;9.20;2.80;;;16.60;99.90;;;;;;5063921;28;25109;-73
2022/10/22 02:21:21;;;;;;;6.97;2.45;;;16.60;99.90;;;;;;5077566;28;25067;-74
2022/10/22 02:23:47;;;;;;;11.02;2.70;;;16.50;99.90;;;;;;5080807;28;25107;-76
2022/10/22 02:26:30;;;;;;;6.88;2.22;;;16.60;99.90;;;;;;5083737;28;25049;-72
2022/10/22 02:29:10;;;;;;;10.85;3.22;;;16.60;99.90;;;;;;5071972;28;25018;-73
2022/10/22 02:31:39;;;;;;;9.10;2.92;;;16.60;99.90;;;;;;5066269;28;25064;-72
2022/10/22 02:34:10;;;;;;;7.63;2.40;;;16.60;99.90;;;;;;5075695;28;25053;-76
2022/10/22 02:36:37;;;;;;;10.65;2.80;;;16.60;99.90;;;;;;5083892;28;25061;-74
2022/10/22 02:39:05;;;;;;;4.97;1.90;;;16.60;99.90;;;;;;5059369;28;25064;-73
2022/10/22 02:41:31;;;;;;;8.77;3.25;;;16.60;99.90;;;;;;5067873;28;25068;-77
2022/10/22 02:43:56;;;;;;;4.13;2.00;;;16.60;99.90;;;;;;5085077;28;25083;-74
2022/10/22 02:46:24;;;;;;;6.60;2.42;;;16.60;99.90;;;;;;5075742;28;25102;-72
2022/10/22 02:48:50;;;;;;;6.93;2.17;;;16.60;99.90;;;;;;5078213;28;25051;-78
2022/10/22 02:51:15;;;;;;;13.85;2.97;;;16.60;99.90;;;;;;5084186;28;25078;-72
2022/10/22 02:53:41;;;;;;;7.68;2.67;;;16.50;99.90;;;;;;5069845;28;25109;-77
2022/10/22 02:56:07;;;;;;;5.85;2.30;;;16.60;99.90;;;;;;5078465;28;25103;-75
2022/10/22 02:58:32;;;;;;;7.72;2.65;;;16.60;99.90;;;;;;5074811;28;25092;-75
2022/10/22 03:00:58;;;;;;;14.02;2.33;;;16.60;99.90;;;;;;5077898;28;25097;-75
2022/10/22 03:03:23;;;;;;;6.13;2.85;;;16.60;99.90;;;;;;5056891;28;25066;-74
2022/10/22 03:05:50;;;;;;;8.85;2.50;;;16.50;99.90;;;;;;5076882;28;25066;-72
2022/10/22 03:08:16;;;;;;;8.60;2.40;;;16.50;99.90;;;;;;5072385;28;25085;-74
2022/10/22 03:10:42;;;;;;;9.25;2.22;;;16.50;99.90;;;;;;5076962;28;25131;-73
2022/10/22 03:13:08;;;;;;;8.10;2.20;;;16.50;99.90;;;;;;5082685;28;25081;-76
2022/10/22 03:15:33;;;;;;;7.38;2.50;;;16.40;99.90;;;;;;5076028;28;25100;-72
2022/10/22 03:17:59;;;;;;;8.02;1.83;;;16.40;99.90;;;;;;5074044;28;25081;-76
2022/10/22 03:20:25;;;;;;;8.10;2.15;;;16.40;99.90;;;;;;5082544;28;25142;-74
2022/10/22 03:22:50;;;;;;;12.32;2.90;;;16.40;99.90;;;;;;5079430;28;25119;-70
2022/10/22 03:25:20;;;;;;;10.48;2.55;;;16.40;99.90;;;;;;5080321;28;25068;-75
2022/10/22 03:27:47;;;;;;;12.43;2.47;;;16.30;99.90;;;;;;5080392;28;25049;-72
2022/10/22 03:30:13;;;;;;;10.48;2.58;;;16.30;99.90;;;;;;5084120;28;25063;-75
2022/10/22 03:32:39;;;;;;;10.02;3.20;;;16.40;99.90;;;;;;5073544;28;25099;-72
2022/10/22 03:35:05;;;;;;;9.85;2.35;;;16.40;99.90;;;;;;5070599;28;25071;-72
2022/10/22 03:37:32;;;;;;;6.93;2.53;;;16.30;99.90;;;;;;5081439;28;25098;-71
2022/10/22 03:39:57;;;;;;;10.05;2.45;;;16.40;99.90;;;;;;5077357;28;25073;-72
2022/10/22 03:42:23;;;;;;;10.80;2.15;;;16.40;99.90;;;;;;5081820;28;25116;-72
2022/10/22 03:44:49;;;;;;;10.38;2.35;;;16.40;99.90;;;;;;5076581;28;25058;-72
2022/10/22 03:47:15;;;;;;;10.45;3.08;;;16.40;99.90;;;;;;5066832;28;25133;-75
2022/10/22 03:49:40;;;;;;;9.55;2.58;;;16.30;99.90;;;;;;5080059;28;25138;-72
2022/10/22 03:52:08;;;;;;;6.78;2.38;;;16.30;99.90;;;;;;5078959;28;25058;-72
2022/10/22 03:54:35;;;;;;;4.88;2.30;;;16.30;99.90;;;;;;5074794;28;25051;-74
2022/10/22 03:57:01;;;;;;;10.65;3.22;;;16.20;99.90;;;;;;5081267;28;25086;-76
2022/10/22 03:59:26;;;;;;;12.27;2.60;;;16.20;99.90;;;;;;5075112;28;25062;-73
2022/10/22 04:01:52;;;;;;;11.00;2.65;;;16.30;99.90;;;;;;5072758;28;25058;-73
2022/10/22 04:04:18;;;;;;;6.88;2.45;;;16.40;99.90;;;;;;5080052;28;25145;-80
2022/10/22 04:06:43;;;;;;;5.90;2.35;;;16.40;99.90;;;;;;5078751;28;25071;-74
2022/10/22 04:09:09;;;;;;;7.45;2.40;;;16.40;99.90;;;;;;5074370;28;25054;-77
2022/10/22 04:11:34;;;;;;;7.68;3.03;;;16.30;99.90;;;;;;5076111;28;25056;-73
2022/10/22 04:14:00;;;;;;;8.48;2.22;;;16.30;99.90;;;;;;5077968;28;25071;-71
2022/10/22 04:16:29;;;;;;;9.30;2.50;;;16.30;99.90;;;;;;5078037;28;25054;-74
2022/10/22 04:18:56;;;;;;;15.10;2.58;;;16.30;99.90;;;;;;5072513;28;25046;-72
2022/10/22 04:21:21;;;;;;;8.75;2.83;;;16.30;99.90;;;;;;5079824;28;25060;-73
2022/10/22 04:23:51;;;;;;;11.68;3.00;;;16.30;99.90;;;;;;5079050;28;25057;-75
2022/10/22 04:26:18;;;;;;;12.35;2.58;;;16.40;99.90;;;;;;5083699;28;25169;-73
2022/10/22 04:28:45;;;;;;;11.88;2.85;;;16.40;99.90;;;;;;5080902;28;25089;-76
2022/10/22 04:31:14;;;;;;;9.10;3.00;;;16.40;99.90;;;;;;5078025;28;25053;-74
2022/10/22 04:33:40;;;;;;;12.32;3.45;;;16.40;99.90;;;;;;5052400;28;25072;-73
2022/10/22 04:36:10;;;;;;;10.00;2.67;;;16.40;99.90;;;;;;5075817;28;25065;-72
2022/10/22 04:38:37;;;;;;;9.13;3.17;;;16.30;99.90;;;;;;5081039;28;25158;-72
2022/10/22 04:41:20;;;;;;;8.90;3.33;;;16.30;99.90;;;;;;5079553;28;25067;-75
2022/10/22 04:43:46;;;;;;;8.95;3.20;;;16.20;99.90;;;;;;5065472;28;25055;-73
2022/10/22 04:46:13;;;;;;;11.02;2.65;;;16.30;99.90;;;;;;5077648;28;25054;-72
2022/10/22 04:48:41;;;;;;;8.50;2.65;;;16.30;99.90;;;;;;5053254;28;25073;-72
2022/10/22 04:51:08;;;;;;;9.20;3.03;;;16.30;99.90;;;;;;5041897;28;25066;-73
2022/10/22 04:53:34;;;;;;;9.55;2.88;;;16.30;99.90;;;;;;5069496;28;25076;-72
2022/10/22 04:56:15;;;;;;;7.07;2.63;;;16.30;99.90;;;;;;5069172;28;25064;-72
2022/10/22 04:58:41;;;;;;;7.65;2.13;;;16.30;99.90;;;;;;5073505;28;25060;-71
2022/10/22 05:01:13;;;;;;;5.85;2.63;;;16.30;99.90;;;;;;5047910;28;25063;-71
2022/10/22 05:03:39;;;;;;;9.10;2.80;;;16.30;99.90;;;;;;5065512;28;25058;-72
2022/10/22 05:06:05;;;;;;;10.52;2.33;;;16.20;99.90;;;;;;5079384;28;25076;-71
2022/10/22 05:08:30;;;;;;;5.65;2.80;;;16.30;99.90;;;;;;5074176;28;25106;-73
2022/10/22 05:10:56;;;;;;;9.15;3.53;;;16.20;99.90;;;;;;5081016;28;25061;-72
2022/10/22 05:13:21;;;;;;;14.68;3.85;;;16.20;99.90;;;;;;5081348;28;25104;-72
2022/10/22 05:15:47;;;;;;;10.65;2.95;;;16.30;99.90;;;;;;5079881;28;25052;-73
2022/10/22 05:18:12;;;;;;;10.85;2.60;;;16.30;99.90;;;;;;5081637;28;25059;-72
2022/10/22 05:20:39;;;;;;;10.45;2.40;;;16.30;99.90;;;;;;5063693;28;25081;-73
2022/10/22 05:23:05;;;;;;;19.92;2.95;;;16.50;99.90;;;;;;5054887;28;25076;-73
2022/10/22 05:25:31;;;;;;;10.57;2.80;;;16.40;99.90;;;;;;5064036;28;25140;-72
2022/10/22 05:27:56;;;;;;;7.85;2.90;;;16.30;99.90;;;;;;5062076;28;25077;-72
2022/10/22 05:30:22;;;;;;;6.00;2.40;;;16.20;99.90;;;;;;5059601;28;25055;-73
2022/10/22 05:32:47;;;;;;;11.32;2.47;;;16.30;99.90;;;;;;5046682;28;25140;-72
2022/10/22 05:35:13;;;;;;;7.88;2.40;;;16.20;99.90;;;;;;5055103;28;25064;-74
2022/10/22 05:37:39;;;;;;;6.97;2.20;;;16.20;99.90;;;;;;5058410;28;25146;-73
2022/10/22 05:40:05;;;;;;;10.88;2.90;;;16.30;99.90;;;;;;5062582;28;25145;-72
2022/10/22 05:42:31;;;;;;;8.50;2.58;;;16.10;99.90;;;;;;5072083;28;25084;-73
2022/10/22 05:44:57;;;;;;;10.50;2.53;;;16.20;99.90;;;;;;5075086;28;25094;-71
2022/10/22 05:47:22;;;;;;;7.38;2.47;;;16.10;99.90;;;;;;5068845;28;25120;-72
2022/10/22 05:49:48;;;;;;;9.80;2.58;;;16.10;99.90;;;;;;5065765;28;25054;-73
2022/10/22 05:52:14;;;;;;;5.93;2.15;;;16.10;99.90;;;;;;5065754;28;25144;-72
2022/10/22 05:54:39;;;;;;;9.68;2.78;;;16.10;99.90;;;;;;5059245;28;25067;-72
2022/10/22 05:57:05;;;;;;;7.75;2.95;;;16.10;99.90;;;;;;5052628;28;25061;-73
2022/10/22 05:59:31;;;;;;;14.52;2.85;;;16.10;99.90;;;;;;5063807;28;25049;-72
2022/10/22 06:01:56;;;;;;;11.45;2.30;;;16.00;99.90;;;;;;5060634;28;25106;-73
2022/10/22 06:04:22;;;;;;;6.13;2.03;;;16.00;99.90;;;;;;5058035;28;25146;-72
2022/10/22 06:06:52;;;;;;;9.07;2.63;;;16.10;99.90;;;;;;5059410;28;25100;-73
2022/10/22 06:09:30;;;;;;;4.85;2.10;;;16.10;99.90;;;;;;5061846;28;25067;-72
2022/10/22 06:11:56;;;;;;;19.48;2.65;;;16.00;99.90;;;;;;5061465;28;25130;-74
2022/10/22 06:14:23;;;;;;;5.93;2.08;;;16.00;99.90;;;;;;5060593;28;25080;-73
2022/10/22 06:16:49;;;;;;;13.00;2.60;;;16.00;99.90;;;;;;5053691;28;25147;-73
2022/10/22 06:19:17;;;;;;;13.45;2.28;;;16.10;99.90;;;;;;5059182;28;25081;-73
2022/10/22 06:21:43;;;;;;;7.45;2.22;;;16.10;99.90;;;;;;5052558;28;25105;-72
2022/10/22 06:24:09;;;;;;;9.68;2.38;;;16.20;99.90;;;;;;5051415;28;25052;-71
2022/10/22 06:26:35;;;;;;;6.85;2.25;;;16.30;99.90;;;;;;5069810;28;25146;-73
2022/10/22 06:29:01;;;;;;;9.63;2.10;;;16.30;99.90;;;;;;5057891;28;25077;-73
2022/10/22 06:31:27;;;;;;;11.15;2.70;;;16.20;99.90;;;;;;5055922;28;25104;-73
2022/10/22 06:33:53;;;;;;;11.50;2.15;;;16.20;99.90;;;;;;5054429;28;25105;-73
2022/10/22 06:36:21;;;;;;;9.80;1.95;;;16.30;99.90;;;;;;5057841;28;25083;-73
2022/10/22 06:38:51;;;;;;;6.60;1.88;;;16.30;99.90;;;;;;5063793;28;25165;-72
2022/10/22 06:41:17;;;;;;;5.90;2.42;;;16.30;99.90;;;;;;5064507;28;25078;-72
2022/10/22 06:43:45;;;;;;;10.00;2.47;;;16.30;99.90;;;;;;5055581;28;25055;-72
2022/10/22 06:46:12;;;;;;;11.32;2.38;;;16.30;99.90;;;;;;5066374;28;25109;-72
2022/10/22 06:48:39;;;;;;;11.40;2.17;;;16.30;99.90;;;;;;5056359;28;25065;-72
2022/10/22 06:51:07;;;;;;;7.93;2.30;;;16.20;99.90;;;;;;5053732;28;25104;-71
2022/10/22 06:53:34;;;;;;;9.32;1.70;;;16.30;99.90;;;;;;5049056;28;25115;-72
2022/10/22 06:56:12;;;;;;;8.38;1.98;;;16.30;99.90;;;;;;5057324;28;25120;-72
2022/10/22 06:58:37;;;;;;;8.93;2.78;;;16.30;99.90;;;;;;5059350;28;25081;-74
2022/10/22 07:01:06;;;;;;;10.60;2.90;;;16.30;99.90;;;;;;5064109;28;25101;-73
2022/10/22 07:03:32;;;;;;;13.70;2.35;;;16.30;99.90;;;;;;5057355;28;25070;-74
2022/10/22 07:06:06;;;;;;;8.63;1.70;;;16.40;99.90;;;;;;5043900;28;25054;-71
2022/10/22 07:08:33;;;;;;;12.50;2.08;;;16.30;99.90;;;;;;5050127;28;25121;-74
2022/10/22 07:11:29;;;;;;;5.57;1.77;;;16.30;99.90;;;;;;5058602;28;25148;-73
2022/10/22 07:13:57;;;;;;;10.18;2.10;;;16.30;99.90;;;;;;5066173;28;25059;-75
2022/10/22 07:16:23;;;;;;;12.27;2.58;;;16.40;99.90;;;;;;5074861;28;25142;-74
2022/10/22 07:18:49;;;;;;;10.85;2.20;;;16.40;99.90;;;;;;5059899;28;25106;-72
2022/10/22 07:21:17;;;;;;;7.05;2.35;;;16.40;99.90;;;;;;5052968;28;25058;-74
2022/10/22 07:23:43;;;;;;;16.80;3.42;;;16.40;99.90;;;;;;5048671;28;25172;-71
2022/10/22 07:26:12;;;;;;;9.15;2.10;;;16.40;99.90;;;;;;5062614;28;25098;-73
2022/10/22 07:28:39;;;;;;;9.23;2.10;;;16.40;99.90;;;;;;5045438;28;25111;-73
2022/10/22 07:31:07;;;;;;;6.28;1.65;;;16.40;99.90;;;;;;5056019;28;25060;-73
2022/10/22 07:33:33;;;;;;;12.55;2.72;;;16.30;99.90;;;;;;5049883;28;25096;-74
2022/10/22 07:36:00;;;;;;;6.88;2.08;;;16.40;99.90;;;;;;5052359;28;25095;-74
2022/10/22 07:38:27;;;;;;;9.27;2.20;;;16.40;99.90;;;;;;5055327;28;25019;-72
2022/10/22 07:40:53;;;;;;;6.38;1.70;;;16.40;99.90;;;;;;5066971;28;25084;-75
2022/10/22 07:43:18;;;;;;;7.00;2.20;;;16.50;99.90;;;;;;5069156;28;25149;-73
2022/10/22 07:45:44;;;;;;;12.90;2.60;;;16.50;99.90;;;;;;5051404;28;25128;-74
2022/10/22 07:48:10;;;;;;;11.45;1.85;;;16.50;99.90;;;;;;5066445;28;25069;-72
2022/10/22 07:50:35;;;;;;;7.70;1.77;;;16.50;99.90;;;;;;5069914;28;25122;-73
2022/10/22 07:53:01;;;;;;;9.00;2.47;;;16.50;99.90;;;;;;5068679;28;25147;-72
2022/10/22 07:55:26;;;;;;;6.13;1.77;;;16.50;99.90;;;;;;5071034;28;25078;-69
2022/10/22 07:57:52;;;;;;;11.63;2.00;;;16.50;99.90;;;;;;5075637;28;25126;-77
2022/10/22 08:00:18;;;;;;;7.22;1.70;;;16.50;99.90;;;;;;5071249;28;25078;-74
2022/10/22 08:02:44;;;;;;;8.45;2.25;;;16.50;99.90;;;;;;5082133;28;25093;-77
2022/10/22 08:05:09;;;;;;;8.52;2.20;;;16.50;99.90;;;;;;5084851;28;25060;-75
2022/10/22 08:07:35;;;;;;;8.07;2.03;;;16.50;99.90;;;;;;5077728;28;25093;-75
2022/10/22 08:10:00;;;;;;;9.43;2.33;;;16.60;99.90;;;;;;5072638;28;25050;-74
2022/10/22 08:12:26;;;;;;;7.47;2.75;;;16.50;99.90;;;;;;5060339;28;25117;-75
2022/10/22 08:14:52;;;;;;;7.25;1.75;;;16.50;99.90;;;;;;5083896;28;25080;-76
2022/10/22 08:17:17;;;;;;;13.63;1.95;;;16.60;99.90;;;;;;5078895;28;25135;-76
2022/10/22 08:19:43;;;;;;;7.05;2.83;;;16.70;99.90;;;;;;5056755;28;25114;-78
2022/10/22 08:22:09;;;;;;;3.88;1.77;;;16.70;99.90;;;;;;5050874;28;25108;-76
2022/10/22 08:24:34;;;;;;;13.55;1.85;;;16.70;99.90;;;;;;5071418;28;25076;-75
2022/10/22 08:27:00;;;;;;;8.65;1.98;;;16.80;99.90;;;;;;5075117;28;25104;-73
2022/10/22 08:29:26;;;;;;;8.20;2.35;;;16.80;99.90;;;;;;5069457;28;25054;-75
2022/10/22 08:31:52;;;;;;;5.72;1.73;;;16.80;99.90;;;;;;5054576;28;25065;-77
2022/10/22 08:34:18;;;;;;;8.10;2.17;;;16.80;99.90;;;;;;5071622;28;25071;-77
2022/10/22 08:36:44;;;;;;;12.20;2.45;;;16.90;99.90;;;;;;5072276;28;25058;-73
2022/10/22 08:39:10;;;;;;;6.20;1.70;;;16.90;99.90;;;;;;5082193;28;25132;-73
2022/10/22 08:41:53;;;;;;;10.00;1.90;;;16.90;99.90;;;;;;5077011;28;25066;-73
2022/10/22 08:44:53;;;;;;;11.82;2.08;;;16.80;99.90;;;;;;5081519;28;25061;-76
2022/10/22 08:47:27;;;;;;;16.90;2.85;;;16.90;99.90;;;;;;5019900;28;25093;-74
2022/10/22 08:49:55;;;;;;;15.23;1.92;;;17.00;99.90;;;;;;5078091;28;25063;-75
2022/10/22 08:52:21;;;;;;;8.27;2.25;;;16.90;99.90;;;;;;5062040;28;25067;-75
2022/10/22 08:54:56;;;;;;;19.38;3.00;;;16.80;99.90;;;;;;5073055;28;25070;-74
2022/10/22 08:57:48;;;;;;;5.60;1.48;;;16.80;99.90;;;;;;5077437;28;25178;-72
2022/10/22 09:00:43;;;;;;;7.25;1.65;;;16.90;99.90;;;;;;5072706;28;25074;-76
2022/10/22 09:03:33;;;;;;;8.73;2.40;;;17.00;99.90;;;;;;5070550;28;24890;-75
2022/10/22 09:06:22;;;;;;;6.43;1.92;;;17.10;99.90;;;;;;5084980;28;25063;-75
2022/10/22 09:08:49;;;;;;;10.93;2.40;;;17.20;99.90;;;;;;5077976;28;25083;-77
2022/10/22 09:11:30;;;;;;;6.28;1.60;;;17.20;99.90;;;;;;5071470;28;25087;-74
2022/10/22 09:13:57;;;;;;;4.80;1.50;;;17.20;99.90;;;;;;5061744;28;25055;-73
2022/10/22 09:16:26;;;;;;;10.05;2.40;;;17.20;99.90;;;;;;5074610;28;25058;-74
2022/10/22 09:19:00;;;;;;;5.80;1.90;;;17.20;99.90;;;;;;5081662;28;25047;-74
2022/10/22 09:21:44;;;;;;;12.55;2.22;;;17.10;99.90;;;;;;5077772;28;25091;-74
2022/10/22 09:24:16;;;;;;;4.38;1.65;;;17.20;99.90;;;;;;5074550;28;25082;-77
2022/10/22 09:26:41;;;;;;;9.55;2.63;;;17.20;99.90;;;;;;5075930;28;25069;-79
2022/10/22 09:29:19;;;;;;;8.10;2.30;;;17.30;99.90;;;;;;5085077;28;25070;-84
2022/10/22 09:31:45;;;;;;;14.35;2.28;;;17.30;99.90;;;;;;5085015;28;25073;-75
2022/10/22 09:34:14;;;;;;;13.85;2.25;;;17.40;99.90;;;;;;5083974;28;25075;-74
2022/10/22 09:36:39;;;;;;;7.95;2.13;;;17.30;99.90;;;;;;5080315;28;25068;-73
2022/10/22 09:39:25;;;;;;;7.63;2.33;;;17.30;99.90;;;;;;5071122;28;25051;-74
2022/10/22 09:41:50;;;;;;;9.52;1.80;;;17.30;99.90;;;;;;5054178;28;25066;-73
2022/10/22 09:44:18;;;;;;;10.35;1.67;;;17.30;99.90;;;;;;5050534;28;25076;-78
2022/10/22 09:46:44;;;;;;;8.43;2.25;;;17.40;99.90;;;;;;5073465;28;25064;-76
2022/10/22 09:49:14;;;;;;;9.57;2.08;;;17.40;99.90;;;;;;5052613;28;25071;-79
2022/10/22 09:51:59;;;;;;;6.10;1.92;;;17.50;99.90;;;;;;5072354;28;25059;-76
2022/10/22 09:54:45;;;;;;;15.95;2.53;;;17.50;99.90;;;;;;5079832;28;25078;-74
2022/10/22 09:57:17;;;;;;;15.65;2.92;;;17.60;99.90;;;;;;5067245;28;25105;-76
2022/10/22 09:59:46;;;;;;;12.35;1.95;;;17.60;99.90;;;;;;5080276;28;25107;-75
2022/10/22 10:02:15;;;;;;;9.32;2.08;;;17.60;99.90;;;;;;5074531;28;25172;-77
2022/10/22 10:04:50;;;;;;;9.68;2.13;;;17.60;99.90;;;;;;5052852;28;25093;-73
2022/10/22 10:07:19;;;;;;;12.15;2.40;;;17.60;99.90;;;;;;5077113;28;25087;-73
2022/10/22 10:09:45;;;;;;;5.45;1.83;;;17.70;99.90;;;;;;5081403;28;25052;-75
2022/10/22 10:12:29;;;;;;;10.82;1.85;;;17.90;99.90;;;;;;5066307;28;25052;-77
2022/10/22 10:15:13;;;;;;;19.52;2.88;;;17.90;99.90;;;;;;5064379;28;25072;-74
2022/10/22 10:17:45;;;;;;;13.60;1.70;;;17.70;99.90;;;;;;5084433;28;25077;-73
2022/10/22 10:20:42;;;;;;;10.65;2.80;;;17.80;99.90;;;;;;5075618;28;25169;-76
2022/10/22 10:23:23;;;;;;;9.15;2.05;;;17.60;99.90;;;;;;5069968;28;25055;-80
2022/10/22 10:26:06;;;;;;;9.52;2.03;;;17.60;99.90;;;;;;5063125;28;25075;-73
2022/10/22 10:28:50;;;;;;;11.18;2.35;;;17.60;99.90;;;;;;5082911;28;25072;-76
2022/10/22 10:31:27;;;;;;;11.88;1.98;;;17.50;99.90;;;;;;5084251;28;25074;-74
2022/10/22 10:34:08;;;;;;;9.02;2.25;;;17.50;99.90;;;;;;5070665;28;25065;-76
2022/10/22 10:36:41;;;;;;;11.65;2.28;;;17.50;99.90;;;;;;5069186;28;25068;-71
2022/10/22 10:39:22;;;;;;;7.80;2.13;;;17.60;99.90;;;;;;5052859;28;25068;-76
2022/10/22 10:42:14;;;;;;;26.37;2.97;;;17.70;99.90;;;;;;5060018;28;25063;-72
2022/10/22 10:44:48;;;;;;;14.38;2.13;;;17.60;99.90;;;;;;5079678;28;25068;-71
2022/10/22 10:47:58;;;;;;;9.20;1.88;;;17.60;99.90;;;;;;5053931;28;25136;-77
2022/10/22 10:50:29;;;;;;;13.30;2.75;;;17.60;99.90;;;;;;5071292;28;25124;-76
2022/10/22 10:53:13;;;;;;;13.73;2.67;;;17.50;99.90;;;;;;5068577;28;25100;-75
2022/10/22 10:55:51;;;;;;;18.08;2.40;;;17.50;99.90;;;;;;5070349;28;25060;-76
2022/10/22 10:58:56;;;;;;;9.23;2.58;;;17.40;99.90;;;;;;5077983;28;25051;-73
2022/10/22 11:01:52;;;;;;;15.63;3.20;;;17.50;99.90;;;;;;5064886;28;25097;-74
2022/10/22 11:05:12;;;;;;;13.60;2.40;;;17.60;99.90;;;;;;5073110;28;25112;-80
2022/10/22 11:07:44;;;;;;;8.75;2.70;;;17.80;99.90;;;;;;4976893;28;25105;-72
2022/10/22 11:10:26;;;;;;;10.90;2.28;;;17.70;99.90;;;;;;5056697;28;25125;-75
2022/10/22 11:12:57;;;;;;;11.13;2.40;;;17.50;99.90;;;;;;5053611;28;25062;-73
2022/10/22 11:15:32;;;;;;;12.02;2.72;;;17.40;99.90;;;;;;5052639;28;25054;-78
2022/10/22 11:18:23;;;;;;;12.45;2.60;;;17.40;99.90;;;;;;5058036;28;25057;-72
2022/10/22 11:21:00;;;;;;;14.65;2.90;;;17.40;99.90;;;;;;5050960;28;25101;-72
2022/10/22 11:23:39;;;;;;;12.20;2.80;;;17.30;99.90;;;;;;5058593;28;25139;-75
2022/10/22 11:26:13;;;;;;;15.13;3.42;;;17.50;99.90;;;;;;5063483;28;25076;-72
2022/10/22 11:28:47;;;;;;;16.60;2.45;;;17.70;99.90;;;;;;5083709;28;25072;-77
2022/10/22 11:31:15;;;;;;;11.30;2.38;;;17.80;99.90;;;;;;5061486;28;25085;-76
2022/10/22 11:34:16;;;;;;;8.50;2.20;;;17.80;99.90;;;;;;5044185;28;25060;-74
2022/10/22 11:36:43;;;;;;;15.23;3.35;;;18.00;99.90;;;;;;5058676;28;25096;-76
2022/10/22 11:39:39;;;;;;;12.23;2.60;;;18.10;99.90;;;;;;5067334;28;25068;-75
2022/10/22 11:42:19;;;;;;;16.98;3.78;;;18.20;99.90;;;;;;5059725;28;25063;-72
2022/10/22 11:44:47;;;;;;;10.23;2.95;;;18.10;99.90;;;;;;5075103;28;25067;-73
2022/10/22 11:47:24;;;;;;;14.80;3.78;;;18.00;99.90;;;;;;5044123;28;25104;-77
2022/10/22 11:49:55;;;;;;;15.75;2.72;;;17.90;99.90;;;;;;5078523;28;25146;-71
2022/10/22 11:52:48;;;;;;;16.88;2.85;;;18.10;99.90;;;;;;5075767;28;25146;-73
2022/10/22 11:55:50;;;;;;;15.55;2.97;;;18.10;99.90;;;;;;5068224;28;25070;-76
2022/10/22 11:58:32;;;;;;;12.23;2.47;;;18.00;99.90;;;;;;5057884;28;25112;-74
2022/10/22 12:01:01;;;;;;;13.27;2.17;;;18.00;99.90;;;;;;5049397;28;25053;-74
2022/10/22 12:03:29;;;;;;;12.40;2.70;;;17.90;99.90;;;;;;5041357;28;25055;-79
2022/10/22 12:06:24;;;;;;;12.43;3.33;;;17.90;99.90;;;;;;5059833;28;25076;-77
2022/10/22 12:08:53;;;;;;;11.23;2.15;;;18.00;99.90;;;;;;5051133;28;25061;-71
2022/10/22 12:11:18;;;;;;;6.97;2.55;;;17.90;99.90;;;;;;5070956;28;25069;-75
2022/10/22 12:14:25;;;;;;;19.77;3.17;;;17.90;99.90;;;;;;5055601;28;25056;-73
2022/10/22 12:16:56;;;;;;;13.15;2.72;;;18.00;99.90;;;;;;5064614;28;25136;-71
2022/10/22 12:19:22;;;;;;;12.20;3.25;;;17.90;99.90;;;;;;5067906;28;25134;-76
2022/10/22 12:22:10;;;;;;;13.48;2.85;;;17.80;99.90;;;;;;5063617;28;25094;-75
2022/10/22 12:24:39;;;;;;;7.63;2.03;;;17.80;99.90;;;;;;5072178;28;25163;-71
2022/10/22 12:27:20;;;;;;;5.18;2.33;;;17.90;99.90;;;;;;5078117;28;25122;-74
2022/10/22 12:29:45;;;;;;;9.35;1.73;;;18.10;99.90;;;;;;5084822;28;25082;-76
2022/10/22 12:32:14;;;;;;;10.77;2.75;;;18.40;99.90;;;;;;5064891;28;25070;-73
2022/10/22 12:34:50;;;;;;;14.65;2.30;;;18.80;99.90;;;;;;5037914;28;25066;-76
2022/10/22 12:37:17;;;;;;;15.70;2.65;;;19.50;99.90;;;;;;5043301;28;25079;-73
2022/10/22 12:39:44;;;;;;;9.70;2.35;;;19.80;99.90;;;;;;5060455;28;25131;-81
2022/10/22 12:42:14;;;;;;;12.77;2.13;;;20.10;99.90;;;;;;5063536;28;25141;-76
2022/10/22 12:44:40;;;;;;;11.88;2.28;;;19.60;99.90;;;;;;5057533;28;25096;-75
2022/10/22 12:47:11;;;;;;;12.70;2.42;;;19.30;99.90;;;;;;5062781;28;25125;-76
2022/10/22 12:49:40;;;;;;;13.00;2.45;;;19.40;99.90;;;;;;5072152;28;25048;-77
2022/10/22 12:52:13;;;;;;;10.00;2.17;;;19.30;99.90;;;;;;5076943;28;25136;-74
2022/10/22 12:54:39;;;;;;;13.40;2.67;;;19.50;99.90;;;;;;5041871;28;25060;-72
2022/10/22 12:57:11;;;;;;;13.30;2.90;;;19.50;99.90;;;;;;5065725;28;25050;-73
2022/10/22 12:59:39;;;;;;;8.15;1.98;;;19.30;99.90;;;;;;5061042;28;25064;-75
2022/10/22 13:02:17;;;;;;;12.77;2.53;;;19.00;99.90;;;;;;5066358;28;25076;-72
2022/10/22 13:05:12;;;;;;;7.93;1.92;;;18.90;99.90;;;;;;5063256;28;25203;-78